createdAt,value
2022-08-20T00:00:12.857Z,25.42
2022-08-20T00:02:42.038Z,25.43
2022-08-20T00:05:10.074Z,25.43
2022-08-20T00:07:37.374Z,25.43
2022-08-20T00:10:07.078Z,25.47
2022-08-20T00:12:36.814Z,25.49
2022-08-20T00:15:06.515Z,25.50
2022-08-20T00:17:33.676Z,25.53
2022-08-20T00:20:00.854Z,25.53
2022-08-20T00:22:28.058Z,25.56
2022-08-20T00:24:55.195Z,25.55
2022-08-20T00:27:22.743Z,25.54
2022-08-20T00:29:51.336Z,25.52
2022-08-20T00:32:18.595Z,25.45
2022-08-20T00:34:45.955Z,25.43
2022-08-20T00:37:13.096Z,25.43
2022-08-20T00:39:40.461Z,25.45
2022-08-20T00:42:08.356Z,25.48
2022-08-20T00:44:36.255Z,25.49
2022-08-20T00:47:05.179Z,25.47
2022-08-20T00:49:33.396Z,25.47
2022-08-20T00:52:06.154Z,25.51
2022-08-20T00:54:39.277Z,25.52
2022-08-20T00:57:09.954Z,25.52
2022-08-20T00:59:42.115Z,25.51
2022-08-20T01:02:14.580Z,25.81
2022-08-20T01:04:42.241Z,26.32
2022-08-20T01:07:09.603Z,26.57
2022-08-20T01:09:57.542Z,26.66
2022-08-20T01:12:28.160Z,26.58
2022-08-20T01:14:57.038Z,26.57
2022-08-20T01:17:29.944Z,26.55
2022-08-20T01:20:05.464Z,26.57
2022-08-20T01:22:41.103Z,26.63
2022-08-20T01:25:15.532Z,26.58
2022-08-20T01:27:46.932Z,26.61
2022-08-20T01:30:20.312Z,26.64
2022-08-20T01:32:47.478Z,26.60
2022-08-20T01:35:20.499Z,26.58
2022-08-20T01:37:47.612Z,26.63
2022-08-20T01:40:24.389Z,26.57
2022-08-20T01:42:59.439Z,26.54
2022-08-20T01:45:27.859Z,26.54
2022-08-20T01:47:55.267Z,26.56
2022-08-20T01:50:28.815Z,26.53
2022-08-20T01:53:03.239Z,26.49
2022-08-20T01:55:31.539Z,26.45
2022-08-20T01:58:01.648Z,26.51
2022-08-20T02:00:28.935Z,26.44
2022-08-20T02:02:56.634Z,26.40
2022-08-20T02:05:24.340Z,26.40
2022-08-20T02:07:58.262Z,26.38
2022-08-20T02:10:25.441Z,26.34
2022-08-20T02:12:53.031Z,26.34
2022-08-20T02:15:34.750Z,26.32
2022-08-20T02:18:05.791Z,26.39
2022-08-20T02:20:36.760Z,26.41
2022-08-20T02:23:05.083Z,26.33
2022-08-20T02:25:35.660Z,26.31
2022-08-20T02:28:06.993Z,26.42
2022-08-20T02:30:39.512Z,26.36
2022-08-20T02:33:10.808Z,26.37
2022-08-20T02:35:39.942Z,26.36
2022-08-20T02:38:07.342Z,26.51
2022-08-20T02:40:34.700Z,26.45
2022-08-20T02:43:03.442Z,26.49
2022-08-20T02:45:33.840Z,26.43
2022-08-20T02:48:02.582Z,26.49
2022-08-20T02:50:30.341Z,26.50
2022-08-20T02:52:57.463Z,26.38
2022-08-20T02:55:27.860Z,26.39
2022-08-20T02:57:57.904Z,26.35
2022-08-20T03:00:28.847Z,26.31
2022-08-20T03:02:59.282Z,26.27
2022-08-20T03:05:28.161Z,26.28
2022-08-20T03:07:55.888Z,26.29
2022-08-20T03:10:24.900Z,26.25
2022-08-20T03:12:52.498Z,26.28
2022-08-20T03:15:20.579Z,26.34
2022-08-20T03:17:48.359Z,26.33
2022-08-20T03:20:15.680Z,26.33
2022-08-20T03:22:44.739Z,26.34
2022-08-20T03:25:12.421Z,26.30
2022-08-20T03:27:39.563Z,26.23
2022-08-20T03:30:10.734Z,26.31
2022-08-20T03:32:38.196Z,26.32
2022-08-20T03:35:08.754Z,26.25
2022-08-20T03:37:37.676Z,26.29
2022-08-20T03:40:14.503Z,26.36
2022-08-20T03:42:41.759Z,26.29
2022-08-20T03:45:10.438Z,26.24
2022-08-20T03:47:37.639Z,26.18
2022-08-20T03:50:09.460Z,26.23
2022-08-20T03:52:41.941Z,26.23
2022-08-20T03:55:11.960Z,26.23
2022-08-20T03:57:45.188Z,26.18
2022-08-20T04:00:14.441Z,26.16
2022-08-20T04:02:41.662Z,26.23
2022-08-20T04:05:09.461Z,26.34
2022-08-20T04:07:37.364Z,26.24
2022-08-20T04:10:08.124Z,26.25
2022-08-20T04:12:38.224Z,26.26
2022-08-20T04:15:10.883Z,26.19
2022-08-20T04:17:39.680Z,26.24
2022-08-20T04:20:08.487Z,26.33
2022-08-20T04:22:38.761Z,26.34
2022-08-20T04:25:08.040Z,26.28
2022-08-20T04:27:37.461Z,26.34
2022-08-20T04:30:06.416Z,26.47
2022-08-20T04:32:33.777Z,26.44
2022-08-20T04:35:00.878Z,26.54
2022-08-20T04:37:27.959Z,26.57
2022-08-20T04:39:55.082Z,26.44
2022-08-20T04:42:26.030Z,26.51
2022-08-20T04:44:54.582Z,26.66
2022-08-20T04:47:34.338Z,26.59
2022-08-20T04:50:02.161Z,26.60
2022-08-20T04:52:29.441Z,26.60
2022-08-20T04:54:56.561Z,26.69
2022-08-20T04:57:24.081Z,26.64
2022-08-20T04:59:51.739Z,26.62
2022-08-20T05:02:20.550Z,26.62
2022-08-20T05:04:48.533Z,26.55
2022-08-20T05:07:17.910Z,26.62
2022-08-20T05:09:45.681Z,26.56
2022-08-20T05:12:13.585Z,26.50
2022-08-20T05:14:40.958Z,26.51
2022-08-20T05:17:08.641Z,26.54
2022-08-20T05:19:38.989Z,26.57
2022-08-20T05:22:06.271Z,26.52
2022-08-20T05:24:33.922Z,26.47
2022-08-20T05:27:01.683Z,26.44
2022-08-20T05:29:29.183Z,26.47
2022-08-20T05:31:56.302Z,26.44
2022-08-20T05:34:23.456Z,26.38
2022-08-20T05:36:52.099Z,26.40
2022-08-20T05:39:22.925Z,26.43
2022-08-20T05:41:50.422Z,26.55
2022-08-20T05:44:19.218Z,26.59
2022-08-20T05:46:48.098Z,26.51
2022-08-20T05:49:18.739Z,26.39
2022-08-20T05:51:47.040Z,26.41
2022-08-20T05:54:16.000Z,26.42
2022-08-20T05:56:43.758Z,26.40
2022-08-20T05:59:11.880Z,26.38
2022-08-20T06:01:40.841Z,26.41
2022-08-20T06:04:09.844Z,26.40
2022-08-20T06:06:45.114Z,26.49
2022-08-20T06:09:13.290Z,26.50
2022-08-20T06:11:41.742Z,26.41
2022-08-20T06:14:08.861Z,26.42
2022-08-20T06:16:37.352Z,26.36
2022-08-20T06:19:05.180Z,26.35
2022-08-20T06:21:32.628Z,26.20
2022-08-20T06:24:01.030Z,26.32
2022-08-20T06:26:30.292Z,26.29
2022-08-20T06:28:59.542Z,26.26
2022-08-20T06:31:27.141Z,26.26
2022-08-20T06:33:54.545Z,26.20
2022-08-20T06:36:22.176Z,26.37
2022-08-20T06:38:49.362Z,26.29
2022-08-20T06:41:16.416Z,26.17
2022-08-20T06:43:43.587Z,26.15
2022-08-20T06:46:12.203Z,26.25
2022-08-20T06:48:39.401Z,26.20
2022-08-20T06:51:06.897Z,26.16
2022-08-20T06:53:34.103Z,26.09
2022-08-20T06:56:01.224Z,26.09
2022-08-20T06:58:36.912Z,26.13
2022-08-20T07:01:09.894Z,26.08
2022-08-20T07:03:39.763Z,26.15
2022-08-20T07:06:09.826Z,26.21
2022-08-20T07:08:36.984Z,26.19
2022-08-20T07:11:04.146Z,26.15
2022-08-20T07:13:31.345Z,26.27
2022-08-20T07:15:58.454Z,26.31
2022-08-20T07:18:28.436Z,26.26
2022-08-20T07:20:58.895Z,26.25
2022-08-20T07:23:27.313Z,26.23
2022-08-20T07:25:54.514Z,26.25
2022-08-20T07:28:25.213Z,26.22
2022-08-20T07:30:57.125Z,26.23
2022-08-20T07:33:28.387Z,26.26
2022-08-20T07:35:57.624Z,26.18
2022-08-20T07:38:28.056Z,26.19
2022-08-20T07:40:57.715Z,26.26
2022-08-20T07:43:24.995Z,26.30
2022-08-20T07:45:54.018Z,26.39
2022-08-20T07:48:30.991Z,26.45
2022-08-20T07:51:03.786Z,26.58
2022-08-20T07:53:35.349Z,26.48
2022-08-20T07:56:07.611Z,26.44
2022-08-20T07:58:35.965Z,26.42
2022-08-20T08:01:04.354Z,26.34
2022-08-20T08:03:39.696Z,26.30
2022-08-20T08:06:30.204Z,26.38
2022-08-20T08:09:02.728Z,26.47
2022-08-20T08:11:31.310Z,26.51
2022-08-20T08:14:00.670Z,26.37
2022-08-20T08:16:29.072Z,26.20
2022-08-20T08:18:56.597Z,25.99
2022-08-20T08:21:26.129Z,25.71
2022-08-20T08:23:53.339Z,25.69
2022-08-20T08:26:20.551Z,25.51
2022-08-20T08:28:47.769Z,25.44
2022-08-20T08:31:16.210Z,25.37
2022-08-20T08:33:44.949Z,25.37
2022-08-20T08:36:15.229Z,25.35
2022-08-20T08:38:45.493Z,25.31
2022-08-20T08:41:18.575Z,25.32
2022-08-20T08:43:49.570Z,25.28
2022-08-20T08:46:24.410Z,25.25
2022-08-20T08:48:56.209Z,25.25
2022-08-20T08:51:32.992Z,25.25
2022-08-20T08:54:06.659Z,25.32
2022-08-20T08:56:35.668Z,25.36
2022-08-20T08:59:08.116Z,25.34
2022-08-20T09:01:55.233Z,25.40
2022-08-20T09:04:27.589Z,25.46
2022-08-20T09:06:54.750Z,25.49
2022-08-20T09:09:29.789Z,25.65
2022-08-20T09:12:04.490Z,25.74
2022-08-20T09:14:31.824Z,25.70
2022-08-20T09:16:59.061Z,25.77
2022-08-20T09:19:26.276Z,26.11
2022-08-20T09:21:53.424Z,26.22
2022-08-20T09:24:20.628Z,26.26
2022-08-20T09:26:49.378Z,26.23
2022-08-20T09:29:16.547Z,26.28
2022-08-20T09:31:44.065Z,26.24
2022-08-20T09:34:12.747Z,26.44
2022-08-20T09:36:39.847Z,26.44
2022-08-20T09:39:06.907Z,26.42
2022-08-20T09:41:34.556Z,26.37
2022-08-20T09:44:03.627Z,26.24
2022-08-20T09:46:30.726Z,26.22
2022-08-20T09:48:57.846Z,26.18
2022-08-20T09:51:25.116Z,26.09
2022-08-20T09:53:52.325Z,26.27
2022-08-20T09:56:19.486Z,26.36
2022-08-20T09:58:51.385Z,26.40
2022-08-20T10:01:22.411Z,26.43
2022-08-20T10:03:51.086Z,26.51
2022-08-20T10:06:19.696Z,26.45
2022-08-20T10:08:47.106Z,26.60
2022-08-20T10:11:14.272Z,26.76
2022-08-20T10:13:41.507Z,26.87
2022-08-20T10:16:08.646Z,26.98
2022-08-20T10:18:37.505Z,27.27
2022-08-20T10:21:09.554Z,27.46
2022-08-20T10:23:36.717Z,27.49
2022-08-20T10:26:03.827Z,27.80
2022-08-20T10:28:30.989Z,27.75
2022-08-20T10:30:58.089Z,28.05
2022-08-20T10:33:25.185Z,28.28
2022-08-20T10:35:59.788Z,28.17
2022-08-20T10:38:27.191Z,28.25
2022-08-20T10:40:54.346Z,28.24
2022-08-20T10:43:21.446Z,28.32
2022-08-20T10:45:48.493Z,28.52
2022-08-20T10:48:20.824Z,28.73
2022-08-20T10:50:49.155Z,28.54
2022-08-20T10:53:18.465Z,28.58
2022-08-20T10:55:45.993Z,28.90
2022-08-20T10:58:13.131Z,29.13
2022-08-20T11:00:41.829Z,28.91
2022-08-20T11:03:08.969Z,28.72
2022-08-20T11:05:36.132Z,28.69
2022-08-20T11:08:05.414Z,29.12
2022-08-20T11:10:35.964Z,28.65
2022-08-20T11:13:06.168Z,28.66
2022-08-20T11:15:36.573Z,29.14
2022-08-20T11:18:04.866Z,29.11
2022-08-20T11:20:32.214Z,29.28
2022-08-20T11:22:59.865Z,29.15
2022-08-20T11:25:27.846Z,29.20
2022-08-20T11:27:58.283Z,29.42
2022-08-20T11:30:28.356Z,29.73
2022-08-20T11:32:56.328Z,29.94
2022-08-20T11:35:42.104Z,30.05
2022-08-20T11:38:10.566Z,30.19
2022-08-20T11:40:37.832Z,30.16
2022-08-20T11:43:15.502Z,30.15
2022-08-20T11:45:44.206Z,29.95
2022-08-20T11:48:11.348Z,30.02
2022-08-20T11:50:38.746Z,29.58
2022-08-20T11:53:05.967Z,29.45
2022-08-20T11:55:35.567Z,29.68
2022-08-20T11:58:02.967Z,29.63
2022-08-20T12:00:34.072Z,29.64
2022-08-20T12:03:02.024Z,29.84
2022-08-20T12:05:29.662Z,29.88
2022-08-20T12:07:57.526Z,29.81
2022-08-20T12:10:24.886Z,29.98
2022-08-20T12:12:52.046Z,29.82
2022-08-20T12:15:20.825Z,29.77
2022-08-20T12:17:49.384Z,29.77
2022-08-20T12:20:16.689Z,29.54
2022-08-20T12:22:43.788Z,29.69
2022-08-20T12:25:11.825Z,29.59
2022-08-20T12:27:39.548Z,29.40
2022-08-20T12:30:09.966Z,29.35
2022-08-20T12:32:37.207Z,29.35
2022-08-20T12:35:07.725Z,29.33
2022-08-20T12:37:35.250Z,29.41
2022-08-20T12:40:06.004Z,29.55
2022-08-20T12:42:33.166Z,29.55
2022-08-20T12:45:01.428Z,29.57
2022-08-20T12:47:31.050Z,29.60
2022-08-20T12:50:00.985Z,29.58
2022-08-20T12:52:30.847Z,29.54
2022-08-20T12:54:58.985Z,29.61
2022-08-20T12:57:28.648Z,29.62
2022-08-20T12:59:56.040Z,29.60
2022-08-20T13:02:23.247Z,29.62
2022-08-20T13:04:50.467Z,29.61
2022-08-20T13:07:17.628Z,29.54
2022-08-20T13:09:46.347Z,29.55
2022-08-20T13:12:13.546Z,29.58
2022-08-20T13:14:41.928Z,29.62
2022-08-20T13:17:09.487Z,29.47
2022-08-20T13:19:39.227Z,29.44
2022-08-20T13:22:06.505Z,29.56
2022-08-20T13:24:33.605Z,29.60
2022-08-20T13:27:06.966Z,29.59
2022-08-20T13:29:35.188Z,29.57
2022-08-20T13:32:02.388Z,29.55
2022-08-20T13:34:29.758Z,29.51
2022-08-20T13:36:56.927Z,29.52
2022-08-20T13:39:24.687Z,29.52
2022-08-20T13:41:51.907Z,29.48
2022-08-20T13:44:20.466Z,29.46
2022-08-20T13:46:58.987Z,29.45
2022-08-20T13:49:26.267Z,29.47
2022-08-20T13:52:00.386Z,29.56
2022-08-20T13:54:30.347Z,29.54
2022-08-20T13:57:05.800Z,29.38
2022-08-20T13:59:37.268Z,29.49
2022-08-20T14:02:07.260Z,29.45
2022-08-20T14:04:35.247Z,29.30
2022-08-20T14:07:10.086Z,29.30
2022-08-20T14:09:38.926Z,29.30
2022-08-20T14:12:06.546Z,29.33
2022-08-20T14:14:33.687Z,29.32
2022-08-20T14:17:18.708Z,29.46
2022-08-20T14:19:47.167Z,29.50
2022-08-20T14:22:15.187Z,29.49
2022-08-20T14:24:42.307Z,29.49
2022-08-20T14:27:09.846Z,29.42
2022-08-20T14:29:40.008Z,29.30
2022-08-20T14:32:11.287Z,29.37
2022-08-20T14:34:38.927Z,29.45
2022-08-20T14:37:15.627Z,29.41
2022-08-20T14:39:45.016Z,29.24
2022-08-20T14:42:12.408Z,29.24
2022-08-20T14:44:40.134Z,29.31
2022-08-20T14:47:14.355Z,29.33
2022-08-20T14:49:42.150Z,29.30
2022-08-20T14:52:09.588Z,29.32
2022-08-20T14:54:38.506Z,29.27
2022-08-20T14:57:08.888Z,29.21
2022-08-20T14:59:41.782Z,29.20
2022-08-20T15:02:13.622Z,29.13
2022-08-20T15:04:41.913Z,29.10
2022-08-20T15:07:16.522Z,29.13
2022-08-20T15:09:46.305Z,29.02
2022-08-20T15:12:13.602Z,28.97
2022-08-20T15:14:40.763Z,29.02
2022-08-20T15:17:11.282Z,28.80
2022-08-20T15:19:39.823Z,28.75
2022-08-20T15:22:06.902Z,28.92
2022-08-20T15:24:34.161Z,28.89
2022-08-20T15:27:11.131Z,28.83
2022-08-20T15:29:38.263Z,28.87
2022-08-20T15:32:05.843Z,28.94
2022-08-20T15:34:33.064Z,28.96
2022-08-20T15:37:14.920Z,29.02
2022-08-20T15:39:47.837Z,29.00
2022-08-20T15:42:17.164Z,28.76
2022-08-20T15:44:45.369Z,28.67
2022-08-20T15:47:19.822Z,28.58
2022-08-20T15:49:49.273Z,28.55
2022-08-20T15:52:18.485Z,28.57
2022-08-20T15:54:47.445Z,28.55
2022-08-20T15:57:32.723Z,28.51
2022-08-20T16:00:09.522Z,28.54
2022-08-20T16:02:58.888Z,28.55
2022-08-20T16:05:42.554Z,28.55
2022-08-20T16:08:34.972Z,28.55
2022-08-20T16:11:16.669Z,28.54
2022-08-20T16:13:49.831Z,28.51
2022-08-20T16:16:25.604Z,28.50
2022-08-20T16:18:55.432Z,28.48
2022-08-20T16:21:30.490Z,28.33
2022-08-20T16:23:59.112Z,28.44
2022-08-20T16:26:41.290Z,28.47
2022-08-20T16:29:18.810Z,28.46
2022-08-20T16:31:53.989Z,28.49
2022-08-20T16:34:33.289Z,28.54
2022-08-20T16:37:10.711Z,28.59
2022-08-20T16:39:49.711Z,28.62
2022-08-20T16:42:24.070Z,28.59
2022-08-20T16:44:54.889Z,28.56
2022-08-20T16:47:28.313Z,28.60
2022-08-20T16:50:03.578Z,28.59
2022-08-20T16:52:30.891Z,28.53
2022-08-20T16:54:59.789Z,28.53
2022-08-20T16:57:28.508Z,28.53
2022-08-20T16:59:59.090Z,28.56
2022-08-20T17:02:26.670Z,28.52
2022-08-20T17:04:59.162Z,28.52
2022-08-20T17:07:33.571Z,28.51
2022-08-20T17:10:16.809Z,28.49
2022-08-20T17:12:44.870Z,28.48
2022-08-20T17:15:22.761Z,28.47
2022-08-20T17:17:49.969Z,28.50
2022-08-20T17:20:20.313Z,28.48
2022-08-20T17:22:50.940Z,28.47
2022-08-20T17:25:29.129Z,28.47
2022-08-20T17:27:58.778Z,28.47
2022-08-20T17:30:34.266Z,28.48
2022-08-20T17:33:06.881Z,28.52
2022-08-20T17:35:40.830Z,28.51
2022-08-20T17:38:08.061Z,28.53
2022-08-20T17:40:43.482Z,28.54
2022-08-20T17:43:24.959Z,28.51
2022-08-20T17:45:53.520Z,28.48
2022-08-20T17:48:24.799Z,28.41
2022-08-20T17:50:54.459Z,28.33
2022-08-20T17:53:26.580Z,28.27
2022-08-20T17:56:00.713Z,28.22
2022-08-20T17:58:38.070Z,28.19
2022-08-20T18:01:09.088Z,28.18
2022-08-20T18:03:40.450Z,28.12
2022-08-20T18:06:16.996Z,28.15
2022-08-20T18:08:56.839Z,28.02
2022-08-20T18:11:37.056Z,28.06
2022-08-20T18:14:37.656Z,28.10
2022-08-20T18:17:22.277Z,28.08
2022-08-20T18:20:23.957Z,28.21
2022-08-20T18:22:58.043Z,28.17
2022-08-20T18:25:34.937Z,28.17
2022-08-20T18:28:09.216Z,28.14
2022-08-20T18:30:49.057Z,28.31
2022-08-20T18:33:27.385Z,28.52
2022-08-20T18:36:10.049Z,28.62
2022-08-20T18:38:39.776Z,28.69
2022-08-20T18:41:09.777Z,28.72
2022-08-20T18:43:40.176Z,28.77
2022-08-20T18:46:19.735Z,28.79
2022-08-20T18:48:53.716Z,28.79
2022-08-20T18:51:32.318Z,28.75
2022-08-20T18:53:59.620Z,28.72
2022-08-20T18:56:37.446Z,28.65
2022-08-20T18:59:13.131Z,28.59
2022-08-20T19:01:42.627Z,28.49
2022-08-20T19:04:27.142Z,28.45
2022-08-20T19:07:00.262Z,28.41
2022-08-20T19:09:49.399Z,28.38
2022-08-20T19:12:35.859Z,28.35
2022-08-20T19:15:07.901Z,28.38
2022-08-20T19:17:48.638Z,28.35
2022-08-20T19:20:20.319Z,28.35
2022-08-20T19:22:51.109Z,28.33
2022-08-20T19:25:29.299Z,28.34
2022-08-20T19:27:58.953Z,28.30
2022-08-20T19:30:35.199Z,28.26
2022-08-20T19:33:03.918Z,28.48
2022-08-20T19:35:31.602Z,28.58
2022-08-20T19:37:59.280Z,28.64
2022-08-20T19:40:29.840Z,28.69
2022-08-20T19:43:00.802Z,28.72
2022-08-20T19:45:39.939Z,28.73
2022-08-20T19:48:27.559Z,28.70
2022-08-20T19:51:06.322Z,28.69
2022-08-20T19:53:36.803Z,28.66
2022-08-20T19:56:07.440Z,28.64
2022-08-20T19:58:35.541Z,28.64
2022-08-20T20:01:09.593Z,28.63
2022-08-20T20:03:38.081Z,28.63
2022-08-20T20:06:16.192Z,28.59
2022-08-20T20:08:54.436Z,28.64
2022-08-20T20:11:28.963Z,28.57
2022-08-20T20:14:04.128Z,28.59
2022-08-20T20:16:34.505Z,28.63
2022-08-20T20:19:24.634Z,28.66
2022-08-20T20:21:51.866Z,28.60
2022-08-20T20:24:26.204Z,28.61
2022-08-20T20:26:53.763Z,28.60
2022-08-20T20:29:26.986Z,28.58
2022-08-20T20:31:58.505Z,28.56
2022-08-20T20:34:28.798Z,28.50
2022-08-20T20:37:06.004Z,28.52
2022-08-20T20:39:38.448Z,28.53
2022-08-20T20:42:08.864Z,28.54
2022-08-20T20:44:38.645Z,28.59
2022-08-20T20:47:17.703Z,28.64
2022-08-20T20:49:50.644Z,28.64
2022-08-20T20:52:21.605Z,28.67
2022-08-20T20:54:48.796Z,28.64
2022-08-20T20:57:36.418Z,28.65
2022-08-20T21:00:08.683Z,28.65
2022-08-20T21:02:37.724Z,28.66
2022-08-20T21:05:05.723Z,28.66
2022-08-20T21:07:32.965Z,28.66
2022-08-20T21:10:00.162Z,28.67
2022-08-20T21:12:27.298Z,28.68
2022-08-20T21:14:54.417Z,28.64
2022-08-20T21:17:22.943Z,28.67
2022-08-20T21:19:52.659Z,28.63
2022-08-20T21:22:21.120Z,28.65
2022-08-20T21:24:48.661Z,28.66
2022-08-20T21:27:15.916Z,28.65
2022-08-20T21:29:43.108Z,28.62
2022-08-20T21:32:12.404Z,28.57
2022-08-20T21:34:42.446Z,28.57
2022-08-20T21:37:12.406Z,28.58
2022-08-20T21:39:40.180Z,28.58
2022-08-20T21:42:28.310Z,28.53
2022-08-20T21:44:56.927Z,28.52
2022-08-20T21:47:24.469Z,28.53
2022-08-20T21:49:52.185Z,28.54
2022-08-20T21:52:20.946Z,28.52
2022-08-20T21:54:48.005Z,28.51
2022-08-20T21:57:19.949Z,28.48
2022-08-20T21:59:48.846Z,28.46
2022-08-20T22:02:16.127Z,28.41
2022-08-20T22:04:43.747Z,28.35
2022-08-20T22:07:12.287Z,28.31
2022-08-20T22:09:40.905Z,28.35
2022-08-20T22:12:23.048Z,28.34
2022-08-20T22:14:51.626Z,28.38
2022-08-20T22:17:19.465Z,28.34
2022-08-20T22:19:46.608Z,28.33
2022-08-20T22:22:15.347Z,28.37
2022-08-20T22:24:44.426Z,28.35
2022-08-20T22:27:12.305Z,28.34
2022-08-20T22:29:39.566Z,28.35
2022-08-20T22:32:07.008Z,28.33
2022-08-20T22:34:37.146Z,28.29
2022-08-20T22:37:05.227Z,28.28
2022-08-20T22:39:32.428Z,28.33
2022-08-20T22:42:01.047Z,28.30
2022-08-20T22:44:28.186Z,28.33
2022-08-20T22:46:59.744Z,28.39
2022-08-20T22:49:30.664Z,28.32
2022-08-20T22:51:58.409Z,28.34
2022-08-20T22:54:26.267Z,28.34
2022-08-20T22:56:54.845Z,28.39
2022-08-20T22:59:24.191Z,28.40
2022-08-20T23:01:52.265Z,28.37
2022-08-20T23:04:26.946Z,28.40
2022-08-20T23:06:55.945Z,28.42
2022-08-20T23:09:23.625Z,28.36
2022-08-20T23:11:52.146Z,28.33
2022-08-20T23:14:20.387Z,28.32
2022-08-20T23:16:59.566Z,28.36
2022-08-20T23:19:26.785Z,28.37
2022-08-20T23:21:53.866Z,28.35
2022-08-20T23:24:21.384Z,28.28
2022-08-20T23:26:52.625Z,28.24
2022-08-20T23:29:22.216Z,28.13
2022-08-20T23:31:55.466Z,28.05
2022-08-20T23:34:22.832Z,27.95
2022-08-20T23:36:50.786Z,27.89
2022-08-20T23:39:17.945Z,27.85
2022-08-20T23:41:47.859Z,27.85
2022-08-20T23:44:25.896Z,27.80
2022-08-20T23:46:58.368Z,27.78
2022-08-20T23:49:26.186Z,27.78
2022-08-20T23:51:53.530Z,27.77
2022-08-20T23:54:20.805Z,27.74
2022-08-20T23:56:47.998Z,27.77
2022-08-20T23:59:15.137Z,27.73
